Time;durP1;ratioP1;P1;durP2;ratioP2;P2;SDS_P1;SDS_P2;PMS_P1;PMS_P2;Temp;Humidity;BMP_temperature;BMP_pressure;BME280_temperature;BME280_humidity;BME280_pressure;Samples;Min_cycle;Max_cycle;Signal;HPM_P1;HPM_P2
2023/09/15 00:00:20;;;;;;;;;;;11.70;99.90;;;;;;5027901;28;20511;-84
2023/09/15 00:02:47;;;;;;;9.85;4.00;;;11.70;99.90;;;;;;5026985;28;19935;-84
2023/09/15 00:05:15;;;;;;;9.38;4.28;;;11.80;99.90;;;;;;5024061;28;20038;-84
2023/09/15 00:07:40;;;;;;;5.20;3.38;;;11.70;99.90;;;;;;5015740;28;20026;-84
2023/09/15 00:10:07;;;;;;;8.35;3.83;;;11.70;99.90;;;;;;5027465;28;20038;-83
2023/09/15 00:12:34;;;;;;;6.13;3.97;;;11.80;99.90;;;;;;5010762;28;20038;-83
2023/09/15 00:15:07;;;;;;;7.57;4.00;;;11.80;99.90;;;;;;5026955;28;20033;-83
2023/09/15 00:17:34;;;;;;;6.45;3.70;;;11.80;99.90;;;;;;5000610;28;20501;-84
2023/09/15 00:20:00;;;;;;;8.98;3.92;;;11.80;99.90;;;;;;5001088;28;20769;-83
2023/09/15 00:22:26;;;;;;;9.85;3.70;;;11.80;99.90;;;;;;4992784;28;20034;-84
2023/09/15 00:24:52;;;;;;;9.75;3.40;;;11.70;99.90;;;;;;4990234;28;20064;-84
2023/09/15 00:27:17;;;;;;;5.30;3.70;;;11.70;99.90;;;;;;5027066;28;20777;-84
2023/09/15 00:29:43;;;;;;;7.60;3.58;;;11.70;99.90;;;;;;5010643;28;20033;-84
2023/09/15 00:32:09;;;;;;;8.68;3.88;;;11.70;99.90;;;;;;5024234;28;20029;-83
2023/09/15 00:34:34;;;;;;;9.52;3.85;;;11.70;99.90;;;;;;5014124;28;20030;-84
2023/09/15 00:37:03;;;;;;;7.65;3.78;;;11.70;99.90;;;;;;5007027;28;20044;-84
2023/09/15 00:39:29;;;;;;;6.28;3.60;;;11.80;99.90;;;;;;4997979;28;20037;-83
2023/09/15 00:41:55;;;;;;;7.47;3.78;;;11.80;99.90;;;;;;5020947;28;20033;-83
2023/09/15 00:44:26;;;;;;;5.88;3.55;;;11.80;99.90;;;;;;5025027;28;20057;-84
2023/09/15 00:46:52;;;;;;;8.68;4.47;;;11.80;99.90;;;;;;4994484;28;20116;-84
2023/09/15 00:49:18;;;;;;;8.48;4.35;;;11.80;99.90;;;;;;5026030;28;20033;-84
2023/09/15 00:51:43;;;;;;;9.48;4.50;;;11.70;99.90;;;;;;5009496;28;20034;-83
2023/09/15 00:54:09;;;;;;;6.22;3.78;;;11.70;99.90;;;;;;4999364;28;20053;-84
2023/09/15 00:56:35;;;;;;;10.73;4.22;;;11.70;99.90;;;;;;5025690;28;20105;-84
2023/09/15 00:59:01;;;;;;;6.05;4.05;;;11.70;99.90;;;;;;4999361;28;20026;-84
2023/09/15 01:01:27;;;;;;;10.23;5.68;;;11.70;99.90;;;;;;5010383;28;20030;-83
2023/09/15 01:03:53;;;;;;;7.88;5.10;;;11.70;99.90;;;;;;5026458;28;20038;-83
2023/09/15 01:06:22;;;;;;;8.80;4.63;;;11.60;99.90;;;;;;4998694;28;20029;-83
2023/09/15 01:08:48;;;;;;;5.90;4.13;;;11.50;99.90;;;;;;4993717;28;20030;-84
2023/09/15 01:11:14;;;;;;;7.28;4.53;;;11.50;99.90;;;;;;5017021;28;20041;-84
2023/09/15 01:13:39;;;;;;;12.52;4.72;;;11.50;99.90;;;;;;5007395;28;20042;-84
2023/09/15 01:16:17;;;;;;;7.90;5.00;;;11.50;99.90;;;;;;5000386;28;20032;-84
2023/09/15 01:18:46;;;;;;;11.15;5.35;;;11.30;99.90;;;;;;5000370;28;20040;-84
2023/09/15 01:21:51;;;;;;;10.32;5.80;;;11.30;99.90;;;;;;5002545;28;20477;-84
2023/09/15 01:24:33;;;;;;;10.75;5.53;;;11.40;99.90;;;;;;5026474;28;20018;-84
2023/09/15 01:27:05;;;;;;;12.73;6.22;;;11.30;99.90;;;;;;5028802;28;20038;-84
2023/09/15 01:29:47;;;;;;;11.68;6.05;;;11.30;99.90;;;;;;4996980;28;20033;-84
2023/09/15 01:32:16;;;;;;;10.55;6.30;;;11.40;99.90;;;;;;5029756;28;20033;-84
2023/09/15 01:34:47;;;;;;;13.70;6.32;;;11.50;99.90;;;;;;4994206;28;20030;-84
2023/09/15 01:37:13;;;;;;;8.70;6.10;;;11.50;99.90;;;;;;4997486;28;20065;-84
2023/09/15 01:39:39;;;;;;;9.73;6.15;;;11.50;99.90;;;;;;5008556;28;20164;-84
2023/09/15 01:42:05;;;;;;;11.82;6.65;;;11.50;99.90;;;;;;4998384;28;20029;-84
2023/09/15 01:44:30;;;;;;;10.77;6.28;;;11.50;99.90;;;;;;5002516;28;20064;-84
2023/09/15 01:46:56;;;;;;;13.00;6.22;;;11.50;99.90;;;;;;5013075;28;20029;-83
2023/09/15 01:49:24;;;;;;;8.60;5.97;;;11.50;99.90;;;;;;4997157;28;20091;-84
2023/09/15 01:51:51;;;;;;;9.23;5.50;;;11.50;99.90;;;;;;4992030;28;20030;-84
2023/09/15 01:54:17;;;;;;;13.93;6.43;;;11.50;99.90;;;;;;5027078;28;20414;-83
2023/09/15 01:56:44;;;;;;;10.00;5.78;;;11.50;99.90;;;;;;5010549;28;20112;-84
2023/09/15 01:59:10;;;;;;;14.70;6.65;;;11.50;99.90;;;;;;5007867;28;20078;-84
2023/09/15 02:01:35;;;;;;;13.00;6.30;;;11.50;99.90;;;;;;5027563;28;20107;-84
2023/09/15 02:04:01;;;;;;;14.60;5.88;;;11.40;99.90;;;;;;5004827;28;20033;-84
2023/09/15 02:06:27;;;;;;;12.02;6.45;;;11.40;99.90;;;;;;5029126;28;20057;-83
2023/09/15 02:08:52;;;;;;;13.30;6.43;;;11.40;99.90;;;;;;4996129;28;20030;-84
2023/09/15 02:11:19;;;;;;;10.35;6.22;;;11.50;99.90;;;;;;5028894;28;20017;-84
2023/09/15 02:13:45;;;;;;;11.77;7.40;;;11.40;99.90;;;;;;4993115;28;20393;-83
2023/09/15 02:16:11;;;;;;;13.95;6.20;;;11.40;99.90;;;;;;5003062;28;20109;-84
2023/09/15 02:18:37;;;;;;;14.40;6.65;;;11.40;99.90;;;;;;4994226;28;20506;-83
2023/09/15 02:21:03;;;;;;;10.57;6.13;;;11.40;99.90;;;;;;4999261;28;20018;-83
2023/09/15 02:23:29;;;;;;;13.77;7.22;;;11.40;99.90;;;;;;4993394;28;20038;-84
2023/09/15 02:25:56;;;;;;;12.57;6.85;;;11.40;99.90;;;;;;5027860;28;20064;-84
2023/09/15 02:28:21;;;;;;;8.95;6.47;;;11.40;99.90;;;;;;4995832;28;20041;-84
2023/09/15 02:30:48;;;;;;;13.52;6.82;;;11.40;99.90;;;;;;5016940;28;20030;-84
2023/09/15 02:33:15;;;;;;;10.35;6.78;;;11.40;99.90;;;;;;4996191;28;20080;-84
2023/09/15 02:35:41;;;;;;;14.63;6.97;;;11.40;99.90;;;;;;5000396;28;20057;-84
2023/09/15 02:38:07;;;;;;;17.48;7.70;;;11.30;99.90;;;;;;5013298;28;20026;-84
2023/09/15 02:40:32;;;;;;;13.00;7.97;;;11.30;99.90;;;;;;5022607;28;20709;-84
2023/09/15 02:42:58;;;;;;;13.30;6.68;;;11.40;99.90;;;;;;5009811;28;20029;-84
2023/09/15 02:45:24;;;;;;;12.93;8.20;;;11.40;99.90;;;;;;5018996;28;20087;-84
2023/09/15 02:47:50;;;;;;;16.35;8.27;;;11.40;99.90;;;;;;5009254;28;20034;-84
2023/09/15 02:50:15;;;;;;;17.98;8.10;;;11.30;99.90;;;;;;4996831;28;20035;-84
2023/09/15 02:56:29;;;;;;;11.75;7.60;;;11.30;99.90;;;;;;5010098;28;20088;-84
2023/09/15 02:58:56;;;;;;;13.77;8.45;;;11.20;99.90;;;;;;5028459;28;20017;-84
2023/09/15 03:01:22;;;;;;;22.20;9.60;;;11.20;99.90;;;;;;5028284;28;20157;-84
2023/09/15 03:03:49;;;;;;;17.80;9.60;;;11.30;99.90;;;;;;4995631;28;20034;-84
2023/09/15 03:06:16;;;;;;;15.55;8.25;;;11.30;99.90;;;;;;5011903;28;20029;-84
2023/09/15 03:08:43;;;;;;;12.68;8.32;;;11.30;99.90;;;;;;5009999;28;20030;-83
2023/09/15 03:11:14;;;;;;;19.63;9.23;;;11.20;99.90;;;;;;5001500;28;20474;-84
2023/09/15 03:13:41;;;;;;;17.88;9.18;;;11.20;99.90;;;;;;5010449;28;20038;-84
2023/09/15 03:16:08;;;;;;;18.63;9.55;;;11.30;99.90;;;;;;4997125;28;20418;-84
2023/09/15 03:18:34;;;;;;;18.60;9.20;;;11.30;99.90;;;;;;4992959;28;20026;-83
2023/09/15 03:21:03;;;;;;;19.02;9.18;;;11.30;99.90;;;;;;4994807;28;20026;-84
2023/09/15 03:23:29;;;;;;;18.13;9.63;;;11.30;99.90;;;;;;4996585;28;20065;-84
2023/09/15 03:26:02;;;;;;;18.20;10.63;;;11.30;99.90;;;;;;5024575;28;20058;-84
2023/09/15 03:28:32;;;;;;;15.40;9.90;;;11.30;99.90;;;;;;5023505;28;20030;-84
2023/09/15 03:30:58;;;;;;;18.13;10.65;;;11.30;99.90;;;;;;5011731;28;20107;-84
2023/09/15 03:33:24;;;;;;;15.93;10.30;;;11.40;99.90;;;;;;5008092;28;20057;-84
2023/09/15 03:35:51;;;;;;;15.50;9.93;;;11.30;99.90;;;;;;5026960;28;20050;-84
2023/09/15 03:38:17;;;;;;;19.88;10.52;;;11.30;99.90;;;;;;5011312;28;20060;-83
2023/09/15 03:40:43;;;;;;;18.08;11.18;;;11.30;99.90;;;;;;5016222;28;20057;-84
2023/09/15 03:43:10;;;;;;;20.13;11.27;;;11.30;99.90;;;;;;5015359;28;20033;-84
2023/09/15 03:45:35;;;;;;;26.88;12.27;;;11.30;99.90;;;;;;4995258;28;20402;-83
2023/09/15 03:48:02;;;;;;;19.10;11.80;;;11.30;99.90;;;;;;5017166;28;20042;-84
2023/09/15 03:50:31;;;;;;;17.85;11.52;;;11.30;99.90;;;;;;5013350;28;20038;-84
2023/09/15 03:52:57;;;;;;;20.52;12.60;;;11.30;99.90;;;;;;5005366;28;20065;-84
2023/09/15 03:55:23;;;;;;;20.08;12.65;;;11.30;99.90;;;;;;5020912;28;20061;-84
2023/09/15 03:57:48;;;;;;;17.80;11.77;;;11.30;99.90;;;;;;4997397;28;20035;-84
2023/09/15 04:00:15;;;;;;;22.33;13.63;;;11.30;99.90;;;;;;5022262;28;20018;-84
2023/09/15 04:02:44;;;;;;;22.00;13.38;;;11.20;99.90;;;;;;4997027;28;20030;-84
2023/09/15 04:05:10;;;;;;;22.17;12.98;;;11.10;99.90;;;;;;5027123;28;20026;-84
2023/09/15 04:07:40;;;;;;;23.65;13.82;;;11.10;99.90;;;;;;5000908;28;20033;-84
2023/09/15 04:10:07;;;;;;;28.05;14.30;;;11.10;99.90;;;;;;5004852;28;20034;-84
2023/09/15 04:12:34;;;;;;;24.90;14.07;;;11.20;99.90;;;;;;5018751;28;20037;-84
2023/09/15 04:15:00;;;;;;;25.25;14.23;;;11.20;99.90;;;;;;5005038;28;20026;-83
2023/09/15 04:17:26;;;;;;;21.73;13.65;;;11.20;99.90;;;;;;5014334;28;20431;-83
2023/09/15 04:19:51;;;;;;;37.13;16.20;;;11.20;99.90;;;;;;4989641;28;20032;-84
2023/09/15 04:22:17;;;;;;;26.70;15.10;;;11.20;99.90;;;;;;5016771;28;20054;-84
2023/09/15 04:24:43;;;;;;;27.58;14.13;;;11.10;99.90;;;;;;5014109;28;20382;-84
2023/09/15 04:27:08;;;;;;;24.30;14.65;;;11.10;99.90;;;;;;4995201;28;20029;-84
2023/09/15 04:29:50;;;;;;;24.00;15.18;;;11.20;99.90;;;;;;5001332;28;20025;-83
2023/09/15 04:32:22;;;;;;;23.35;15.20;;;11.30;99.90;;;;;;5021797;28;20033;-84
2023/09/15 04:34:50;;;;;;;25.25;15.43;;;11.30;99.90;;;;;;5010325;28;20023;-85
2023/09/15 04:37:16;;;;;;;29.88;15.07;;;11.30;99.90;;;;;;5014040;28;20034;-84
2023/09/15 04:39:41;;;;;;;30.45;14.60;;;11.40;99.90;;;;;;5013248;28;20096;-84
2023/09/15 04:42:10;;;;;;;27.10;15.38;;;11.40;99.90;;;;;;5019480;28;20037;-84
2023/09/15 04:44:36;;;;;;;24.38;14.52;;;11.30;99.90;;;;;;5026531;28;20445;-84
2023/09/15 04:47:01;;;;;;;28.75;15.38;;;11.40;99.90;;;;;;4992185;28;20066;-84
2023/09/15 04:49:28;;;;;;;27.80;15.23;;;11.30;99.90;;;;;;4996232;28;20030;-84
2023/09/15 04:51:57;;;;;;;28.23;15.15;;;11.30;99.90;;;;;;5010680;28;20030;-84
2023/09/15 04:54:23;;;;;;;22.23;13.98;;;11.30;99.90;;;;;;5002244;28;20026;-84
2023/09/15 04:56:48;;;;;;;34.15;15.98;;;11.20;99.90;;;;;;5010338;28;20162;-84
2023/09/15 04:59:17;;;;;;;30.70;15.57;;;11.20;99.90;;;;;;5002068;28;20391;-84
2023/09/15 05:01:44;;;;;;;26.05;15.80;;;11.20;99.90;;;;;;5007715;28;20034;-83
2023/09/15 05:04:10;;;;;;;26.48;15.73;;;11.20;99.90;;;;;;5018990;28;20486;-83
2023/09/15 05:06:36;;;;;;;29.58;15.43;;;11.30;99.90;;;;;;5006797;28;20127;-83
2023/09/15 05:09:05;;;;;;;27.73;16.40;;;11.20;99.90;;;;;;5021709;28;20034;-83
2023/09/15 05:11:31;;;;;;;26.27;15.23;;;11.30;99.90;;;;;;5000074;28;20034;-83
2023/09/15 05:13:57;;;;;;;34.45;16.55;;;11.30;99.90;;;;;;5027971;28;20033;-83
2023/09/15 05:16:23;;;;;;;30.98;15.07;;;11.30;99.90;;;;;;5001309;28;20478;-83
2023/09/15 05:18:49;;;;;;;27.25;14.85;;;11.30;99.90;;;;;;4999816;28;20493;-83
2023/09/15 05:21:15;;;;;;;23.23;14.90;;;11.40;99.90;;;;;;5017758;28;20066;-82
2023/09/15 05:23:41;;;;;;;23.75;13.68;;;11.40;99.90;;;;;;5000153;28;20034;-83
2023/09/15 05:26:08;;;;;;;22.70;12.88;;;11.30;99.90;;;;;;5018475;28;20022;-83
2023/09/15 05:29:17;;;;;;;26.42;14.60;;;11.30;99.90;;;;;;5017759;28;20026;-83
2023/09/15 05:31:43;;;;;;;26.40;13.65;;;11.30;99.90;;;;;;5030658;28;20034;-83
2023/09/15 05:34:09;;;;;;;23.30;13.95;;;11.40;99.90;;;;;;4997983;28;20095;-83
2023/09/15 05:36:35;;;;;;;25.02;14.63;;;11.30;99.90;;;;;;5017308;28;20026;-83
2023/09/15 05:39:01;;;;;;;25.25;13.98;;;11.30;99.90;;;;;;5012467;28;20030;-83
2023/09/15 05:41:50;;;;;;;22.23;13.23;;;11.40;99.90;;;;;;5030021;28;20075;-83
2023/09/15 05:44:18;;;;;;;28.65;14.95;;;11.50;99.90;;;;;;5007982;28;20420;-83
2023/09/15 05:46:44;;;;;;;22.63;14.07;;;11.60;99.90;;;;;;5014680;28;20030;-83
2023/09/15 05:49:10;;;;;;;25.48;14.27;;;11.60;99.90;;;;;;5011601;28;20026;-83
2023/09/15 05:51:35;;;;;;;20.77;13.80;;;11.70;99.90;;;;;;5013274;28;20018;-83
2023/09/15 05:54:02;;;;;;;23.88;12.35;;;11.70;99.90;;;;;;5010666;28;20107;-83
2023/09/15 05:56:29;;;;;;;22.05;12.85;;;11.80;99.90;;;;;;5017483;28;20019;-83
2023/09/15 05:58:55;;;;;;;22.17;12.55;;;11.80;99.90;;;;;;5026265;28;20397;-83
2023/09/15 06:01:21;;;;;;;20.67;12.60;;;11.90;99.90;;;;;;4993024;28;20014;-83
2023/09/15 06:03:48;;;;;;;20.58;12.10;;;12.00;99.90;;;;;;5021588;28;20048;-83
2023/09/15 06:06:16;;;;;;;24.27;12.23;;;12.00;99.90;;;;;;5008542;28;20037;-83
2023/09/15 06:08:42;;;;;;;22.75;12.30;;;12.20;99.90;;;;;;4990969;28;20481;-82
2023/09/15 06:11:07;;;;;;;17.90;11.07;;;12.20;99.90;;;;;;4999167;28;20034;-83
2023/09/15 06:13:34;;;;;;;16.77;10.88;;;12.30;99.90;;;;;;5021796;28;20117;-83
2023/09/15 06:16:00;;;;;;;16.05;10.98;;;12.40;99.90;;;;;;4999286;28;20129;-82
2023/09/15 06:18:26;;;;;;;15.77;10.35;;;12.50;99.90;;;;;;5000268;28;20109;-83
2023/09/15 06:20:56;;;;;;;15.75;10.43;;;12.60;99.90;;;;;;5025705;28;20024;-83
2023/09/15 06:23:22;;;;;;;16.48;11.10;;;12.70;99.90;;;;;;5001916;28;20071;-83
2023/09/15 06:25:48;;;;;;;17.60;9.77;;;12.80;99.90;;;;;;5021778;28;20030;-83
2023/09/15 06:28:14;;;;;;;15.02;9.48;;;12.90;99.90;;;;;;5007145;28;20525;-83
2023/09/15 06:30:40;;;;;;;14.48;9.38;;;13.00;99.90;;;;;;5008955;28;20453;-83
2023/09/15 06:33:06;;;;;;;13.25;8.65;;;13.10;99.90;;;;;;4996074;28;20087;-83
2023/09/15 06:35:33;;;;;;;14.77;9.23;;;13.30;99.90;;;;;;5006361;28;20022;-83
2023/09/15 06:38:00;;;;;;;13.38;8.02;;;13.40;99.90;;;;;;5005388;28;20026;-83
2023/09/15 06:40:26;;;;;;;11.60;8.75;;;13.60;99.90;;;;;;5018242;28;20018;-83
2023/09/15 06:42:52;;;;;;;12.07;8.40;;;13.70;99.90;;;;;;5005954;28;20034;-83
2023/09/15 06:45:18;;;;;;;11.55;7.93;;;13.90;99.90;;;;;;5002581;28;20626;-83
2023/09/15 06:47:43;;;;;;;13.52;7.75;;;14.00;99.90;;;;;;5021423;28;20125;-82
2023/09/15 06:50:09;;;;;;;14.65;8.80;;;14.20;99.90;;;;;;5009729;28;20053;-83
2023/09/15 06:52:35;;;;;;;13.82;8.30;;;14.20;99.90;;;;;;5017994;28;20042;-83
2023/09/15 06:55:01;;;;;;;11.57;7.88;;;14.40;99.90;;;;;;4996924;28;20022;-83
2023/09/15 06:57:26;;;;;;;11.38;7.43;;;14.60;99.90;;;;;;5021654;28;20022;-82
2023/09/15 06:59:52;;;;;;;12.93;8.25;;;14.80;99.90;;;;;;5023187;28;20038;-82
2023/09/15 07:02:18;;;;;;;10.60;7.40;;;14.90;99.90;;;;;;5019405;28;20022;-83
2023/09/15 07:04:44;;;;;;;9.93;7.30;;;15.10;99.90;;;;;;5015960;28;20042;-82
2023/09/15 07:07:10;;;;;;;13.15;7.20;;;15.20;99.90;;;;;;4996694;28;20022;-83
2023/09/15 07:09:36;;;;;;;11.07;6.90;;;15.20;99.90;;;;;;5015696;28;20137;-82
2023/09/15 07:12:03;;;;;;;10.95;6.85;;;15.30;99.90;;;;;;5024289;28;20105;-83
2023/09/15 07:14:29;;;;;;;9.13;6.60;;;15.40;99.90;;;;;;5002313;28;20049;-82
2023/09/15 07:16:55;;;;;;;11.07;7.15;;;15.50;99.90;;;;;;5000607;28;20027;-83
2023/09/15 07:19:21;;;;;;;9.32;7.20;;;15.60;99.90;;;;;;4996531;28;20108;-82
2023/09/15 07:21:47;;;;;;;12.68;8.25;;;15.60;99.90;;;;;;5015419;28;20521;-82
2023/09/15 07:24:13;;;;;;;10.45;6.60;;;15.70;99.90;;;;;;5022116;28;20835;-83
2023/09/15 07:26:38;;;;;;;11.35;6.95;;;15.80;99.90;;;;;;5004053;28;20030;-82
2023/09/15 07:29:04;;;;;;;12.85;7.30;;;15.90;99.90;;;;;;5018128;28;20072;-83
2023/09/15 07:31:34;;;;;;;7.57;6.53;;;16.00;99.90;;;;;;4987920;28;20019;-83
2023/09/15 07:34:01;;;;;;;10.15;7.07;;;16.00;99.90;;;;;;5009074;28;20044;-82
2023/09/15 07:36:27;;;;;;;10.43;7.18;;;16.10;99.90;;;;;;5002173;28;20085;-83
2023/09/15 07:38:55;;;;;;;12.73;7.72;;;16.20;99.90;;;;;;4984913;28;20034;-83
2023/09/15 07:41:21;;;;;;;9.10;6.47;;;16.20;99.90;;;;;;5019552;28;20545;-83
2023/09/15 07:43:47;;;;;;;16.92;8.30;;;16.30;99.90;;;;;;5010149;28;20033;-83
2023/09/15 07:46:16;;;;;;;8.50;6.78;;;16.30;99.90;;;;;;5006530;28;20537;-83
2023/09/15 07:48:42;;;;;;;12.25;6.57;;;16.40;99.90;;;;;;4990536;28;20100;-83
2023/09/15 07:51:08;;;;;;;10.88;7.00;;;16.40;99.90;;;;;;5000134;28;20113;-83
2023/09/15 07:53:34;;;;;;;9.70;7.47;;;16.40;99.90;;;;;;5000053;28;20147;-83
2023/09/15 07:56:00;;;;;;;11.93;6.75;;;16.50;99.90;;;;;;5010155;28;20033;-83
2023/09/15 07:58:25;;;;;;;11.13;6.75;;;16.60;99.90;;;;;;5003478;28;20025;-83
2023/09/15 08:00:53;;;;;;;9.43;7.07;;;16.70;99.90;;;;;;5000638;28;20061;-83
2023/09/15 08:03:19;;;;;;;9.95;6.78;;;16.70;99.90;;;;;;4997249;28;20038;-82
2023/09/15 08:05:44;;;;;;;8.73;6.97;;;16.80;99.90;;;;;;5019967;28;20084;-83
2023/09/15 08:08:10;;;;;;;9.55;6.97;;;16.90;99.90;;;;;;4989275;28;20075;-83
2023/09/15 08:10:36;;;;;;;20.88;7.88;;;17.00;99.90;;;;;;5003486;28;20033;-83
2023/09/15 08:13:01;;;;;;;9.45;6.88;;;17.00;99.90;;;;;;5023969;28;20038;-83
2023/09/15 08:15:27;;;;;;;16.40;6.97;;;17.10;99.90;;;;;;5008264;28;20022;-84
2023/09/15 08:17:53;;;;;;;8.15;6.78;;;17.20;99.90;;;;;;5001619;28;20128;-83
2023/09/15 08:20:19;;;;;;;8.02;5.93;;;17.20;99.90;;;;;;5007357;28;20192;-83
2023/09/15 08:22:45;;;;;;;8.75;6.88;;;17.30;99.90;;;;;;5001236;28;20431;-83
2023/09/15 08:25:11;;;;;;;8.77;6.40;;;17.40;99.90;;;;;;5024912;28;20117;-83
2023/09/15 08:27:39;;;;;;;8.48;6.47;;;17.40;99.90;;;;;;5027836;28;20100;-82
2023/09/15 08:30:08;;;;;;;9.45;6.07;;;17.50;99.90;;;;;;4994017;28;20604;-83
2023/09/15 08:32:34;;;;;;;7.70;6.10;;;17.60;99.90;;;;;;4999942;28;20042;-83
2023/09/15 08:35:00;;;;;;;8.80;6.13;;;17.70;99.90;;;;;;5000060;28;20014;-83
2023/09/15 08:37:25;;;;;;;11.68;6.28;;;17.80;99.90;;;;;;5030912;28;20034;-83
2023/09/15 08:39:51;;;;;;;10.48;5.95;;;17.90;99.90;;;;;;5012029;28;20153;-83
2023/09/15 08:42:28;;;;;;;9.20;4.97;;;18.90;99.90;;;;;;5020996;28;20041;-84
2023/09/15 08:44:56;;;;;;;7.22;5.13;;;20.80;99.90;;;;;;5020558;28;20038;-83
2023/09/15 08:47:24;;;;;;;5.63;4.40;;;21.90;99.90;;;;;;5032565;28;20037;-83
2023/09/15 08:49:51;;;;;;;8.82;5.03;;;23.00;99.90;;;;;;5009573;28;20097;-83
2023/09/15 08:52:18;;;;;;;5.07;4.00;;;23.80;99.90;;;;;;5017286;28;20030;-84
2023/09/15 08:54:45;;;;;;;7.38;4.07;;;23.80;99.90;;;;;;5017327;28;20034;-83
2023/09/15 08:57:11;;;;;;;7.47;3.55;;;24.40;99.90;;;;;;5000095;28;20026;-83
2023/09/15 08:59:38;;;;;;;5.80;4.07;;;24.90;99.90;;;;;;5000358;28;20034;-84
2023/09/15 09:02:04;;;;;;;7.80;4.07;;;25.30;99.90;;;;;;5011770;28;20386;-83
2023/09/15 09:04:30;;;;;;;4.35;3.30;;;24.90;99.90;;;;;;5033422;28;20037;-83
2023/09/15 09:06:59;;;;;;;4.05;3.50;;;24.70;99.90;;;;;;5016962;28;20030;-84
2023/09/15 09:09:25;;;;;;;5.50;3.63;;;25.00;99.90;;;;;;5015210;28;20038;-85
2023/09/15 09:11:51;;;;;;;5.80;4.18;;;24.60;99.90;;;;;;4999329;28;20508;-83
2023/09/15 09:14:17;;;;;;;5.47;3.78;;;24.00;99.90;;;;;;5015539;28;20030;-85
2023/09/15 09:16:43;;;;;;;7.43;3.20;;;24.20;99.90;;;;;;5012234;28;20037;-83
2023/09/15 09:19:18;;;;;;;8.43;4.20;;;24.10;99.90;;;;;;5016789;28;20061;-84
2023/09/15 09:21:44;;;;;;;4.47;3.00;;;24.40;99.90;;;;;;5002966;28;20030;-83
2023/09/15 09:24:10;;;;;;;5.45;3.67;;;23.80;99.90;;;;;;5016935;28;20121;-84
2023/09/15 09:26:37;;;;;;;5.82;3.97;;;23.20;99.90;;;;;;5016923;28;20033;-84
2023/09/15 09:29:03;;;;;;;5.10;3.40;;;23.10;99.90;;;;;;5003366;28;20089;-84
2023/09/15 09:31:29;;;;;;;6.07;3.10;;;22.60;99.90;;;;;;5012626;28;20076;-84
2023/09/15 09:33:57;;;;;;;5.20;2.90;;;22.50;99.90;;;;;;5032975;28;20033;-84
2023/09/15 09:36:23;;;;;;;3.90;2.78;;;22.60;99.90;;;;;;5014133;28;20108;-84
2023/09/15 09:38:51;;;;;;;4.32;2.50;;;22.80;99.90;;;;;;5002350;28;20743;-84
2023/09/15 09:41:18;;;;;;;5.68;2.80;;;23.10;99.90;;;;;;5012467;28;20026;-84
2023/09/15 09:43:48;;;;;;;3.70;2.55;;;23.20;99.90;;;;;;5007396;28;20026;-83
2023/09/15 09:46:21;;;;;;;2.97;2.17;;;23.60;99.90;;;;;;4998512;28;20477;-84
2023/09/15 09:48:49;;;;;;;3.22;2.50;;;24.30;99.90;;;;;;5013946;28;20175;-84
2023/09/15 09:51:17;;;;;;;3.78;2.30;;;25.10;99.90;;;;;;5010974;28;20022;-84
2023/09/15 09:53:43;;;;;;;6.43;3.22;;;25.20;99.90;;;;;;5013536;28;20092;-84
2023/09/15 09:56:08;;;;;;;3.92;2.55;;;25.20;99.90;;;;;;5003855;28;20105;-84
2023/09/15 09:58:36;;;;;;;5.68;3.08;;;25.10;99.90;;;;;;5013339;28;20053;-83
2023/09/15 10:01:06;;;;;;;5.75;2.80;;;25.50;99.90;;;;;;4997435;28;20389;-84
2023/09/15 10:03:53;;;;;;;4.38;2.72;;;26.10;99.90;;;;;;5015580;28;20081;-83
2023/09/15 10:06:20;;;;;;;7.28;3.53;;;25.70;99.90;;;;;;5012046;28;20168;-84
2023/09/15 10:08:46;;;;;;;4.53;2.13;;;25.90;99.90;;;;;;4999738;28;20507;-83
2023/09/15 10:11:13;;;;;;;4.30;2.40;;;26.30;98.70;;;;;;5013232;28;20490;-84
2023/09/15 10:13:45;;;;;;;4.90;2.90;;;26.60;99.90;;;;;;5005794;28;20018;-84
2023/09/15 10:16:11;;;;;;;3.60;2.70;;;26.80;99.60;;;;;;5029760;28;20101;-84
2023/09/15 10:18:37;;;;;;;3.42;2.30;;;26.20;97.80;;;;;;5012696;28;20034;-83
2023/09/15 10:21:04;;;;;;;4.32;2.65;;;25.80;99.30;;;;;;5029640;28;20115;-83
2023/09/15 10:23:30;;;;;;;4.88;3.20;;;26.00;99.80;;;;;;5026916;28;20469;-84
2023/09/15 10:25:56;;;;;;;4.65;3.13;;;26.20;99.90;;;;;;4988235;28;20129;-83
2023/09/15 10:28:22;;;;;;;4.25;3.20;;;25.90;99.90;;;;;;5028592;28;20137;-83
2023/09/15 10:30:54;;;;;;;6.57;2.90;;;25.80;99.90;;;;;;5000820;28;20042;-84
2023/09/15 10:33:25;;;;;;;5.65;2.92;;;25.90;99.90;;;;;;4998514;28;20058;-84
2023/09/15 10:35:51;;;;;;;4.40;3.03;;;25.70;99.90;;;;;;5012645;28;20034;-84
2023/09/15 10:38:28;;;;;;;4.30;2.97;;;26.30;99.90;;;;;;4996118;28;20817;-84
2023/09/15 10:40:54;;;;;;;5.18;3.05;;;26.50;99.90;;;;;;4996080;28;20027;-84
2023/09/15 10:43:20;;;;;;;8.70;2.97;;;26.40;99.90;;;;;;5011977;28;20030;-84
2023/09/15 10:45:57;;;;;;;5.40;3.20;;;26.10;99.90;;;;;;5007347;28;20105;-83
2023/09/15 10:48:36;;;;;;;4.15;3.40;;;25.80;99.90;;;;;;5028949;28;20068;-83
2023/09/15 10:51:07;;;;;;;4.75;3.88;;;25.70;99.90;;;;;;5002496;28;20045;-83
2023/09/15 10:53:44;;;;;;;10.68;3.85;;;25.50;99.90;;;;;;5027884;28;20162;-84
2023/09/15 10:56:09;;;;;;;6.32;3.78;;;25.20;99.90;;;;;;5020186;28;20117;-83
2023/09/15 10:58:37;;;;;;;5.65;3.83;;;25.90;99.90;;;;;;5026643;28;20498;-84
2023/09/15 11:01:03;;;;;;;5.55;2.63;;;26.00;99.90;;;;;;5012153;28;20030;-84
2023/09/15 11:03:30;;;;;;;8.38;3.70;;;25.80;99.90;;;;;;5005436;28;20053;-83
2023/09/15 11:05:56;;;;;;;3.92;3.35;;;25.80;99.90;;;;;;5031292;28;20026;-85
2023/09/15 11:08:24;;;;;;;3.85;3.33;;;26.00;99.90;;;;;;5013768;28;20037;-83
2023/09/15 11:11:11;;;;;;;7.57;3.60;;;26.50;99.90;;;;;;4997207;28;20026;-84
2023/09/15 11:13:38;;;;;;;6.00;2.78;;;26.50;99.90;;;;;;5005148;28;20145;-84
2023/09/15 11:16:05;;;;;;;2.67;1.88;;;26.70;97.10;;;;;;4998472;28;20026;-83
2023/09/15 11:18:35;;;;;;;4.32;2.30;;;26.60;95.40;;;;;;4991983;28;20034;-83
2023/09/15 11:21:01;;;;;;;3.10;2.40;;;26.20;96.00;;;;;;5003976;28;20444;-83
2023/09/15 11:23:28;;;;;;;3.08;2.28;;;26.00;96.70;;;;;;4997434;28;20026;-84
2023/09/15 11:26:06;;;;;;;4.63;2.00;;;26.10;95.60;;;;;;5006262;28;20034;-83
2023/09/15 11:28:35;;;;;;;3.33;2.10;;;25.90;94.90;;;;;;4998232;28;20061;-83
2023/09/15 11:31:05;;;;;;;3.47;2.25;;;26.50;96.80;;;;;;5004921;28;20029;-83
2023/09/15 11:33:31;;;;;;;6.17;2.13;;;26.20;94.90;;;;;;5002072;28;20030;-82
2023/09/15 11:35:57;;;;;;;2.92;2.20;;;26.40;95.00;;;;;;5009728;28;20376;-83
2023/09/15 11:38:31;;;;;;;2.58;1.88;;;26.70;94.40;;;;;;5018176;28;20030;-83
2023/09/15 11:40:57;;;;;;;3.00;2.55;;;27.20;93.20;;;;;;5006093;28;20026;-83
2023/09/15 11:43:24;;;;;;;3.22;2.53;;;27.70;93.00;;;;;;4994049;28;20030;-83
2023/09/15 11:46:20;;;;;;;2.55;2.30;;;28.30;94.30;;;;;;4997555;28;20034;-83
2023/09/15 11:48:48;;;;;;;4.93;2.45;;;28.60;94.00;;;;;;5007172;28;20033;-83
2023/09/15 11:51:14;;;;;;;3.13;2.70;;;28.00;93.70;;;;;;5011122;28;20389;-83
2023/09/15 11:53:42;;;;;;;3.45;3.15;;;27.70;95.40;;;;;;4994501;28;20048;-82
2023/09/15 11:56:23;;;;;;;5.72;3.00;;;27.20;94.60;;;;;;5011437;28;20030;-83
2023/09/15 11:58:50;;;;;;;5.18;2.67;;;27.10;94.20;;;;;;5027939;28;20030;-84
2023/09/15 12:01:19;;;;;;;5.38;3.05;;;26.80;94.40;;;;;;5011803;28;20021;-83
2023/09/15 12:03:48;;;;;;;5.20;3.67;;;27.10;94.70;;;;;;5003443;28;20030;-84
2023/09/15 12:06:18;;;;;;;5.65;3.08;;;27.60;94.50;;;;;;5011591;28;20029;-84
2023/09/15 12:08:49;;;;;;;3.50;2.88;;;27.40;94.20;;;;;;4992325;28;20765;-83
2023/09/15 12:11:16;;;;;;;8.85;3.10;;;27.40;94.50;;;;;;5002093;28;20057;-83
2023/09/15 12:14:06;;;;;;;4.35;3.10;;;27.50;95.70;;;;;;5002075;28;20116;-83
2023/09/15 12:16:32;;;;;;;3.40;3.05;;;27.50;95.50;;;;;;4995591;28;20145;-83
2023/09/15 12:18:59;;;;;;;5.90;3.90;;;27.80;95.00;;;;;;5008998;28;20026;-83
2023/09/15 12:21:28;;;;;;;3.58;3.00;;;27.60;94.00;;;;;;5017516;28;20504;-83
2023/09/15 12:23:54;;;;;;;3.22;2.58;;;27.00;96.60;;;;;;4990299;28;20096;-83
2023/09/15 12:26:22;;;;;;;7.63;3.25;;;27.10;96.20;;;;;;5009053;28;20037;-83
2023/09/15 12:29:08;;;;;;;8.60;3.45;;;26.20;96.50;;;;;;5027106;28;20065;-84
2023/09/15 12:31:42;;;;;;;5.18;3.13;;;26.00;97.70;;;;;;5018901;28;20033;-83
2023/09/15 12:34:08;;;;;;;7.35;3.50;;;26.10;97.10;;;;;;5007589;28;20044;-83
2023/09/15 12:36:34;;;;;;;3.92;3.35;;;26.10;98.20;;;;;;5002430;28;20072;-84
2023/09/15 12:39:21;;;;;;;4.97;3.67;;;26.00;96.80;;;;;;4997905;28;20062;-83
2023/09/15 12:42:01;;;;;;;7.75;4.18;;;25.90;98.50;;;;;;4999685;28;20027;-84
2023/09/15 12:44:27;;;;;;;12.75;4.55;;;25.50;98.30;;;;;;4998515;28;20034;-83
2023/09/15 12:46:53;;;;;;;5.53;3.63;;;25.20;98.80;;;;;;4990730;28;20367;-84